createdAt,value
2019-02-28T00:02:29.454Z,40.23
2019-02-28T00:05:05.887Z,39.50
2019-02-28T00:07:33.709Z,40.53
2019-02-28T00:10:06.336Z,38.17
2019-02-28T00:12:38.218Z,37.73
2019-02-28T00:15:10.100Z,35.77
2019-02-28T00:17:43.590Z,38.83
2019-02-28T00:20:15.355Z,38.93
2019-02-28T00:22:49.303Z,36.43
2019-02-28T00:25:20.442Z,35.50
2019-02-28T00:27:52.729Z,37.77
2019-02-28T00:30:24.822Z,38.67
2019-02-28T00:32:56.436Z,38.03
2019-02-28T00:35:29.206Z,38.73
2019-02-28T00:38:00.886Z,37.37
2019-02-28T00:40:32.490Z,35.83
2019-02-28T00:43:04.110Z,35.73
2019-02-28T00:45:37.201Z,35.33
2019-02-28T00:48:10.576Z,33.80
2019-02-28T00:50:42.063Z,33.27
2019-02-28T00:53:13.689Z,33.83
2019-02-28T00:55:45.883Z,36.53
2019-02-28T00:58:18.322Z,35.87
2019-02-28T01:00:50.090Z,34.93
2019-02-28T01:03:26.475Z,34.53
2019-02-28T01:05:56.887Z,33.40
2019-02-28T01:08:28.311Z,31.60
2019-02-28T01:11:00.215Z,34.60
2019-02-28T01:13:33.095Z,32.60
2019-02-28T01:16:04.537Z,33.20
2019-02-28T01:18:37.387Z,34.63
2019-02-28T01:21:08.659Z,32.40
2019-02-28T01:23:40.200Z,33.67
2019-02-28T01:26:12.441Z,33.73
2019-02-28T01:28:43.942Z,33.70
2019-02-28T01:31:15.502Z,33.60
2019-02-28T01:33:47.046Z,32.33
2019-02-28T01:36:18.318Z,32.53
2019-02-28T01:38:49.752Z,31.43
2019-02-28T01:41:21.271Z,33.43
2019-02-28T01:43:53.243Z,34.90
2019-02-28T01:46:24.503Z,32.77
2019-02-28T01:48:55.887Z,33.57
2019-02-28T01:51:27.444Z,35.50
2019-02-28T01:53:58.807Z,33.03
2019-02-28T01:56:30.335Z,30.53
2019-02-28T01:59:01.657Z,30.00
2019-02-28T02:01:32.916Z,30.93
2019-02-28T02:04:04.145Z,32.03
2019-02-28T02:06:35.411Z,32.27
2019-02-28T02:09:11.088Z,29.67
2019-02-28T02:11:41.992Z,32.27
2019-02-28T02:14:13.462Z,34.97
2019-02-28T02:16:45.072Z,32.63
2019-02-28T02:19:18.495Z,32.73
2019-02-28T02:21:49.376Z,33.60
2019-02-28T02:24:24.425Z,33.00
2019-02-28T02:26:54.394Z,35.17
2019-02-28T02:29:27.198Z,33.87
2019-02-28T02:32:01.022Z,33.47
2019-02-28T02:34:32.178Z,33.60
2019-02-28T02:37:03.444Z,32.80
2019-02-28T02:39:34.869Z,31.67
2019-02-28T02:42:11.442Z,33.00
2019-02-28T02:44:40.421Z,33.17
2019-02-28T02:47:11.795Z,32.87
2019-02-28T02:49:43.119Z,31.23
2019-02-28T02:52:15.745Z,29.13
2019-02-28T02:54:47.295Z,29.23
2019-02-28T02:57:18.797Z,30.63
2019-02-28T02:59:51.157Z,32.70
2019-02-28T03:02:22.592Z,31.77
2019-02-28T03:04:57.769Z,30.40
2019-02-28T03:07:27.552Z,29.50
2019-02-28T03:09:58.894Z,29.70
2019-02-28T03:12:32.854Z,29.47
2019-02-28T03:15:06.498Z,30.47
2019-02-28T03:17:37.958Z,31.40
2019-02-28T03:20:10.566Z,32.07
2019-02-28T03:22:42.156Z,31.77
2019-02-28T03:25:14.251Z,32.57
2019-02-28T03:27:45.948Z,34.93
2019-02-28T03:30:29.379Z,34.23
2019-02-28T03:32:50.938Z,33.57
2019-02-28T03:35:22.332Z,32.60
2019-02-28T03:37:53.618Z,35.23
2019-02-28T03:40:27.832Z,33.97
2019-02-28T03:43:05.504Z,33.17
2019-02-28T03:45:35.114Z,33.17
2019-02-28T03:48:05.322Z,33.43
2019-02-28T03:50:36.826Z,32.17
2019-02-28T03:53:08.379Z,33.50
2019-02-28T03:55:41.442Z,32.90
2019-02-28T03:58:13.053Z,34.13
2019-02-28T04:00:44.514Z,33.17
2019-02-28T04:03:16.329Z,30.97
2019-02-28T04:05:47.798Z,30.57
2019-02-28T04:08:19.222Z,29.70
2019-02-28T04:10:54.736Z,30.83
2019-02-28T04:13:23.937Z,29.97
2019-02-28T04:16:07.691Z,32.80
2019-02-28T04:18:29.252Z,32.33
2019-02-28T04:21:02.045Z,33.90
2019-02-28T04:23:35.949Z,34.23
2019-02-28T04:26:07.837Z,33.47
2019-02-28T04:28:39.371Z,33.73
2019-02-28T04:31:10.789Z,33.93
2019-02-28T04:33:42.547Z,32.37
2019-02-28T04:36:14.037Z,32.17
2019-02-28T04:38:45.832Z,33.13
2019-02-28T04:41:17.136Z,31.13
2019-02-28T04:43:48.546Z,30.83
2019-02-28T04:46:20.325Z,33.23
2019-02-28T04:48:51.760Z,33.30
2019-02-28T04:51:23.060Z,30.67
2019-02-28T04:53:54.462Z,32.73
2019-02-28T04:56:28.091Z,35.23
2019-02-28T04:59:00.369Z,32.10
2019-02-28T05:01:34.028Z,34.57
2019-02-28T05:04:05.647Z,36.23
2019-02-28T05:06:36.945Z,37.30
2019-02-28T05:09:10.675Z,38.13
2019-02-28T05:11:42.193Z,37.63
2019-02-28T05:14:13.648Z,36.00
2019-02-28T05:16:47.571Z,36.93
2019-02-28T05:19:18.131Z,37.53
2019-02-28T05:21:50.596Z,37.93
2019-02-28T05:24:22.393Z,38.80
2019-02-28T05:26:54.152Z,36.60
2019-02-28T05:29:25.686Z,34.00
2019-02-28T05:31:58.153Z,37.23
2019-02-28T05:34:31.447Z,39.30
2019-02-28T05:37:03.047Z,37.87
2019-02-28T05:39:34.341Z,38.50
2019-02-28T05:42:05.690Z,39.87
2019-02-28T05:44:37.400Z,41.13
2019-02-28T05:47:12.389Z,39.50
2019-02-28T05:49:43.900Z,40.50
2019-02-28T05:52:15.501Z,42.63
2019-02-28T05:54:47.318Z,42.63
2019-02-28T05:57:19.761Z,45.07
2019-02-28T05:59:51.239Z,45.47
2019-02-28T06:02:25.729Z,42.47
2019-02-28T06:04:57.368Z,43.70
2019-02-28T06:07:29.485Z,42.43
2019-02-28T06:10:01.126Z,43.20
2019-02-28T06:12:32.735Z,42.87
2019-02-28T06:15:04.976Z,41.53
2019-02-28T06:17:36.634Z,42.83
2019-02-28T06:20:08.857Z,41.53
2019-02-28T06:22:40.448Z,42.40
2019-02-28T06:25:22.512Z,41.07
2019-02-28T06:27:50.481Z,42.43
2019-02-28T06:30:21.757Z,40.47
2019-02-28T06:32:57.834Z,41.03
2019-02-28T06:35:26.095Z,39.80
2019-02-28T06:37:57.550Z,40.47
2019-02-28T06:40:32.563Z,39.40
2019-02-28T06:43:02.262Z,41.80
2019-02-28T06:45:36.698Z,40.40
2019-02-28T06:48:06.855Z,39.97
2019-02-28T06:50:38.388Z,40.53
2019-02-28T06:53:10.018Z,38.63
2019-02-28T06:55:51.659Z,39.03
2019-02-28T06:58:24.732Z,39.03
2019-02-28T07:00:58.337Z,39.97
2019-02-28T07:03:29.944Z,39.47
2019-02-28T07:06:20.716Z,39.83
2019-02-28T07:09:02.323Z,39.43
2019-02-28T07:11:35.228Z,41.37
2019-02-28T07:14:14.323Z,39.77
2019-02-28T07:16:47.490Z,40.50
2019-02-28T07:19:18.910Z,38.97
2019-02-28T07:21:59.708Z,39.57
2019-02-28T07:24:31.283Z,40.47
2019-02-28T07:27:04.264Z,38.70
2019-02-28T07:29:37.823Z,40.33
2019-02-28T07:32:10.601Z,41.37
2019-02-28T07:34:43.701Z,40.73
2019-02-28T07:37:18.714Z,39.83
2019-02-28T07:39:48.751Z,39.23
2019-02-28T07:42:20.326Z,38.90
2019-02-28T07:44:53.675Z,38.37
2019-02-28T07:47:25.473Z,38.47
2019-02-28T07:49:57.111Z,36.97
2019-02-28T07:52:32.438Z,36.43
2019-02-28T07:55:01.883Z,36.17
2019-02-28T07:57:34.934Z,34.93
2019-02-28T08:00:09.359Z,33.83
2019-02-28T08:02:41.238Z,35.93
2019-02-28T08:05:13.771Z,35.17
2019-02-28T08:07:50.287Z,34.90
2019-02-28T08:10:19.789Z,36.03
2019-02-28T08:12:51.821Z,34.60
2019-02-28T08:15:24.166Z,34.93
2019-02-28T08:17:55.936Z,35.97
2019-02-28T08:20:30.659Z,35.33
2019-02-28T08:23:01.643Z,36.47
2019-02-28T08:25:33.319Z,37.17
2019-02-28T08:28:06.322Z,36.87
2019-02-28T08:30:37.735Z,36.83
2019-02-28T08:33:10.567Z,36.40
2019-02-28T08:35:42.573Z,37.37
2019-02-28T08:38:15.022Z,36.33
2019-02-28T08:40:50.298Z,39.77
2019-02-28T08:43:26.885Z,39.33
2019-02-28T08:45:53.013Z,41.83
2019-02-28T08:48:24.386Z,44.70
2019-02-28T08:50:56.786Z,47.03
2019-02-28T08:53:29.442Z,47.50
2019-02-28T08:56:00.916Z,49.37
2019-02-28T08:58:32.517Z,48.93
2019-02-28T09:01:06.490Z,52.63
2019-02-28T09:03:38.211Z,54.00
2019-02-28T09:06:09.733Z,54.20
2019-02-28T09:08:41.371Z,55.93
2019-02-28T09:11:13.155Z,55.90
2019-02-28T09:13:44.830Z,55.33
2019-02-28T09:16:16.350Z,56.03
2019-02-28T09:18:47.822Z,56.40
2019-02-28T09:21:19.648Z,59.50
2019-02-28T09:23:51.102Z,60.50
2019-02-28T09:26:24.014Z,58.70
2019-02-28T09:28:55.354Z,62.13
2019-02-28T09:31:28.440Z,60.07
2019-02-28T09:34:01.933Z,58.10
2019-02-28T09:36:33.139Z,58.57
2019-02-28T09:39:05.448Z,56.40
2019-02-28T09:41:40.307Z,52.47
2019-02-28T09:47:14.736Z,50.33
2019-02-28T09:49:47.169Z,46.83
2019-02-28T09:52:19.927Z,45.10
2019-02-28T09:54:51.384Z,42.50
2019-02-28T09:57:22.863Z,41.03
2019-02-28T09:59:55.377Z,36.17
2019-02-28T10:02:26.798Z,33.60
2019-02-28T10:04:58.119Z,30.80
2019-02-28T10:07:29.944Z,29.13
2019-02-28T10:10:01.492Z,27.37
2019-02-28T10:12:33.481Z,26.60
2019-02-28T10:15:07.197Z,26.23
2019-02-28T10:17:42.212Z,23.27
2019-02-28T10:20:16.463Z,21.53
2019-02-28T10:22:48.116Z,21.17
2019-02-28T10:25:20.096Z,21.47
2019-02-28T10:27:51.435Z,21.30
2019-02-28T10:30:31.176Z,21.53
2019-02-28T10:32:56.359Z,20.13
2019-02-28T10:35:28.505Z,19.67
2019-02-28T10:38:00.074Z,17.60
2019-02-28T10:40:32.169Z,17.47
2019-02-28T10:43:03.586Z,14.70
2019-02-28T10:45:41.120Z,14.70
2019-02-28T10:48:10.085Z,12.50
2019-02-28T10:50:41.737Z,10.37
2019-02-28T10:53:13.201Z,10.67
2019-02-28T10:55:44.709Z,10.53
2019-02-28T10:58:16.232Z,10.30
2019-02-28T11:00:48.074Z,9.87
2019-02-28T11:03:20.163Z,9.20
2019-02-28T11:05:54.276Z,8.23
2019-02-28T11:08:24.502Z,8.87
2019-02-28T11:10:55.794Z,9.17
2019-02-28T11:13:28.579Z,8.43
2019-02-28T11:16:00.678Z,9.67
2019-02-28T11:18:32.176Z,9.30
2019-02-28T11:21:04.212Z,10.43
2019-02-28T11:23:35.761Z,11.43
2019-02-28T11:26:10.460Z,10.93
2019-02-28T11:28:42.884Z,9.33
2019-02-28T11:31:19.225Z,8.20
2019-02-28T11:33:52.294Z,6.40
2019-02-28T11:36:24.388Z,5.70
2019-02-28T11:38:56.089Z,4.13
2019-02-28T11:41:27.538Z,4.13
2019-02-28T11:44:00.516Z,4.63
2019-02-28T11:46:35.819Z,4.20
2019-02-28T11:49:05.477Z,4.60
2019-02-28T11:51:37.281Z,4.73
2019-02-28T11:54:12.279Z,5.43
2019-02-28T11:56:41.976Z,5.10
2019-02-28T11:59:13.331Z,4.80
2019-02-28T12:01:48.363Z,4.87
2019-02-28T12:04:19.174Z,4.60
2019-02-28T12:06:50.754Z,4.30
2019-02-28T12:09:22.226Z,4.30
2019-02-28T12:11:54.065Z,4.17
2019-02-28T12:14:26.358Z,4.57
2019-02-28T12:16:59.236Z,3.83
2019-02-28T12:19:56.297Z,3.93
2019-02-28T12:22:27.748Z,3.80
2019-02-28T12:25:01.075Z,3.47
2019-02-28T12:27:34.132Z,3.33
2019-02-28T12:30:06.859Z,3.63
2019-02-28T12:32:40.269Z,3.87
2019-02-28T12:35:11.511Z,3.93
2019-02-28T12:37:44.230Z,3.77
2019-02-28T12:40:18.082Z,3.60
2019-02-28T12:42:50.019Z,3.20
2019-02-28T12:45:33.043Z,3.57
2019-02-28T12:48:04.752Z,4.00
2019-02-28T12:50:36.695Z,3.90
2019-02-28T12:53:08.453Z,3.90
2019-02-28T12:55:40.798Z,3.77
2019-02-28T12:58:13.727Z,4.07
2019-02-28T13:00:45.532Z,4.07
2019-02-28T13:03:20.156Z,3.60
2019-02-28T13:05:52.601Z,3.80
2019-02-28T13:08:24.541Z,3.37
2019-02-28T13:11:02.976Z,3.50
2019-02-28T13:13:29.206Z,3.60
2019-02-28T13:16:00.822Z,3.70
2019-02-28T13:18:32.428Z,3.67
2019-02-28T13:21:06.214Z,3.47
2019-02-28T13:23:36.970Z,3.47
2019-02-28T13:26:08.638Z,2.87
2019-02-28T13:28:40.268Z,3.27
2019-02-28T13:31:12.754Z,3.30
2019-02-28T13:33:48.557Z,2.87
2019-02-28T13:36:18.549Z,4.27
2019-02-28T13:38:54.799Z,3.70
2019-02-28T13:41:26.507Z,3.57
2019-02-28T13:44:00.205Z,3.60
2019-02-28T13:46:33.784Z,3.70
2019-02-28T13:49:04.921Z,3.57
2019-02-28T13:51:40.559Z,3.87
2019-02-28T13:54:09.961Z,4.00
2019-02-28T13:56:41.411Z,3.70
2019-02-28T13:59:14.182Z,3.40
2019-02-28T14:01:45.612Z,3.43
2019-02-28T14:04:18.734Z,3.70
2019-02-28T14:06:52.447Z,3.40
2019-02-28T14:09:24.603Z,4.27
2019-02-28T14:11:56.286Z,3.57
2019-02-28T14:14:27.951Z,3.23
2019-02-28T14:17:01.309Z,2.93
2019-02-28T14:19:33.899Z,3.60
2019-02-28T14:22:08.551Z,3.10
2019-02-28T14:24:39.026Z,3.07
2019-02-28T14:27:10.825Z,2.53
2019-02-28T14:29:42.635Z,2.70
2019-02-28T14:32:16.562Z,2.60
2019-02-28T14:34:49.972Z,2.10
2019-02-28T14:37:21.368Z,2.27
2019-02-28T14:39:54.095Z,1.80
2019-02-28T14:42:25.854Z,2.60
2019-02-28T14:44:57.327Z,2.10
2019-02-28T14:47:29.567Z,2.10
2019-02-28T14:50:01.447Z,2.80
2019-02-28T14:52:35.768Z,2.40
2019-02-28T14:55:07.722Z,2.07
2019-02-28T14:57:39.252Z,2.47
2019-02-28T15:00:13.900Z,2.60
2019-02-28T15:02:46.699Z,2.53
2019-02-28T15:05:20.473Z,2.37
2019-02-28T15:07:52.361Z,2.60
2019-02-28T15:10:24.633Z,2.23
2019-02-28T15:12:58.648Z,2.50
2019-02-28T15:15:29.312Z,2.47
2019-02-28T15:18:00.725Z,2.67
2019-02-28T15:20:33.242Z,2.50
2019-02-28T15:23:05.105Z,2.53
2019-02-28T15:25:36.529Z,3.20
2019-02-28T15:28:10.623Z,2.80
2019-02-28T15:30:41.847Z,2.83
2019-02-28T15:33:13.672Z,2.50
2019-02-28T15:35:46.519Z,2.87
2019-02-28T15:38:18.541Z,2.97
2019-02-28T15:40:50.447Z,2.53
2019-02-28T15:43:22.063Z,2.60
2019-02-28T15:45:53.673Z,2.50
2019-02-28T15:48:26.047Z,2.67
2019-02-28T15:50:59.120Z,3.73
2019-02-28T15:53:32.119Z,3.27
2019-02-28T15:56:10.561Z,3.90
2019-02-28T15:58:37.728Z,4.17
2019-02-28T16:01:10.483Z,3.97
2019-02-28T16:03:42.404Z,4.17
2019-02-28T16:06:16.340Z,4.50
2019-02-28T16:08:48.361Z,3.93
2019-02-28T16:11:20.171Z,4.17
2019-02-28T16:13:51.869Z,4.20
2019-02-28T16:16:24.583Z,4.30
2019-02-28T16:18:58.048Z,4.53
2019-02-28T16:21:31.209Z,4.63
2019-02-28T16:24:05.056Z,4.27
2019-02-28T16:26:37.706Z,4.20
2019-02-28T16:29:14.842Z,4.53
2019-02-28T16:31:51.476Z,3.70
2019-02-28T16:34:24.988Z,4.10
2019-02-28T16:37:00.939Z,3.73
2019-02-28T16:39:31.691Z,3.97
2019-02-28T16:42:04.057Z,3.40
2019-02-28T16:44:36.669Z,3.63
2019-02-28T16:47:09.348Z,3.40
2019-02-28T16:49:44.415Z,3.33
2019-02-28T16:52:16.273Z,3.67
2019-02-28T16:54:47.953Z,3.97
2019-02-28T16:57:21.263Z,4.00
2019-02-28T16:59:54.220Z,3.73
2019-02-28T17:02:26.368Z,3.47
2019-02-28T17:04:59.629Z,3.60
2019-02-28T17:07:31.424Z,3.70
2019-02-28T17:10:04.771Z,3.07
2019-02-28T17:13:04.670Z,4.23
2019-02-28T17:15:55.887Z,3.30
2019-02-28T17:18:28.212Z,3.37
2019-02-28T17:20:59.774Z,3.47
2019-02-28T17:23:33.757Z,3.60
2019-02-28T17:26:05.452Z,3.73
2019-02-28T17:28:58.933Z,3.77
2019-02-28T17:31:44.583Z,3.50
2019-02-28T17:34:23.847Z,3.33
2019-02-28T17:36:53.107Z,4.07
2019-02-28T17:39:24.857Z,3.77
2019-02-28T17:41:57.166Z,4.83
2019-02-28T17:44:51.893Z,4.80
2019-02-28T17:47:45.793Z,4.20
2019-02-28T17:50:50.970Z,4.00
2019-02-28T17:53:44.945Z,4.33
2019-02-28T17:57:01.797Z,3.50
2019-02-28T18:00:16.114Z,4.27
2019-02-28T18:03:03.657Z,3.57
2019-02-28T18:06:16.406Z,3.50
2019-02-28T18:09:21.000Z,4.03
2019-02-28T18:12:35.250Z,3.87
2019-02-28T18:15:30.457Z,4.30
2019-02-28T18:18:55.110Z,4.40
2019-02-28T18:22:16.094Z,4.57
2019-02-28T18:25:21.957Z,4.00
2019-02-28T18:28:15.406Z,4.97
2019-02-28T18:31:15.433Z,4.30
2019-02-28T18:33:52.754Z,4.97
2019-02-28T18:36:27.091Z,3.97
2019-02-28T18:38:58.880Z,4.13
2019-02-28T18:41:30.296Z,4.17
2019-02-28T18:44:03.645Z,3.40
2019-02-28T18:46:34.882Z,3.50
2019-02-28T18:49:07.017Z,3.60
2019-02-28T18:51:38.450Z,4.03
2019-02-28T18:54:10.136Z,3.77
2019-02-28T18:56:42.109Z,4.13
2019-02-28T18:59:13.739Z,3.83
2019-02-28T19:01:45.043Z,4.10
2019-02-28T19:04:16.547Z,4.03
2019-02-28T19:06:48.087Z,4.37
2019-02-28T19:09:23.992Z,4.23
2019-02-28T19:11:55.710Z,3.47
2019-02-28T19:14:27.061Z,4.20
2019-02-28T19:16:58.497Z,3.67
2019-02-28T19:19:30.364Z,3.70
2019-02-28T19:22:03.116Z,3.90
2019-02-28T19:24:34.485Z,4.13
2019-02-28T19:27:05.911Z,4.30
2019-02-28T19:29:37.180Z,4.40
2019-02-28T19:32:08.611Z,3.87
2019-02-28T19:34:40.087Z,3.90
2019-02-28T19:37:11.888Z,4.23
2019-02-28T19:39:43.727Z,4.73
2019-02-28T19:42:16.297Z,4.53
2019-02-28T19:44:47.696Z,4.33
2019-02-28T19:47:21.703Z,4.20
2019-02-28T19:49:53.507Z,3.83
2019-02-28T19:52:24.960Z,4.73
2019-02-28T19:54:56.383Z,4.70
2019-02-28T19:57:29.567Z,5.20
2019-02-28T20:00:01.212Z,4.97
2019-02-28T20:02:33.051Z,4.93
2019-02-28T20:05:05.697Z,4.80
2019-02-28T20:07:37.198Z,4.80
2019-02-28T20:10:10.989Z,4.90
2019-02-28T20:12:42.968Z,4.43
2019-02-28T20:15:16.361Z,5.30
2019-02-28T20:17:48.012Z,5.10
2019-02-28T20:20:20.973Z,4.80
2019-02-28T20:22:52.440Z,4.70
2019-02-28T20:25:25.447Z,5.33
2019-02-28T20:27:57.399Z,5.67
2019-02-28T20:30:29.196Z,5.67
2019-02-28T20:33:00.725Z,5.33
2019-02-28T20:35:33.591Z,5.50
2019-02-28T20:38:06.206Z,5.93
2019-02-28T20:40:37.550Z,5.37
2019-02-28T20:43:09.663Z,5.70
2019-02-28T20:45:41.224Z,5.57
2019-02-28T20:48:12.688Z,6.13
2019-02-28T20:50:46.187Z,6.20
2019-02-28T20:53:17.792Z,6.50
2019-02-28T20:55:52.629Z,5.47
2019-02-28T20:58:24.559Z,6.17
2019-02-28T21:00:56.402Z,6.63
2019-02-28T21:03:28.177Z,6.50
2019-02-28T21:05:59.729Z,6.33
2019-02-28T21:08:31.192Z,5.90
2019-02-28T21:11:03.017Z,6.10
2019-02-28T21:13:37.579Z,6.03
2019-02-28T21:16:09.491Z,6.67
2019-02-28T21:18:41.279Z,6.67
2019-02-28T21:21:12.690Z,6.53
2019-02-28T21:23:44.132Z,7.10
2019-02-28T21:26:15.737Z,7.10
2019-02-28T21:28:47.444Z,7.27
2019-02-28T21:31:18.825Z,7.90
2019-02-28T21:33:50.538Z,7.80
2019-02-28T21:36:21.923Z,7.83
2019-02-28T21:38:53.246Z,8.83
2019-02-28T21:41:25.377Z,7.97
2019-02-28T21:43:57.726Z,7.97
2019-02-28T21:46:29.245Z,8.27
2019-02-28T21:49:00.725Z,8.93
2019-02-28T21:51:32.123Z,8.20
2019-02-28T21:54:03.544Z,8.57
2019-02-28T21:56:35.204Z,9.17
2019-02-28T21:59:06.865Z,8.80
2019-02-28T22:01:38.431Z,9.03
2019-02-28T22:04:10.239Z,9.73
2019-02-28T22:06:42.641Z,10.03
2019-02-28T22:09:15.427Z,9.83
2019-02-28T22:11:46.799Z,10.40
2019-02-28T22:14:18.230Z,10.53
2019-02-28T22:16:50.032Z,10.63
2019-02-28T22:19:21.830Z,11.07
2019-02-28T22:21:54.588Z,11.97
2019-02-28T22:24:27.689Z,13.20
2019-02-28T22:26:58.984Z,12.10
2019-02-28T22:29:31.332Z,11.10
2019-02-28T22:32:32.095Z,11.73
2019-02-28T22:35:08.842Z,11.10
2019-02-28T22:37:40.474Z,11.60
2019-02-28T22:40:13.782Z,10.13
2019-02-28T22:42:45.262Z,11.23
2019-02-28T22:45:16.744Z,11.23
2019-02-28T22:47:48.100Z,10.40
2019-02-28T22:50:19.404Z,11.30
2019-02-28T22:52:52.521Z,12.43
2019-02-28T22:55:23.884Z,11.83
2019-02-28T22:57:55.478Z,11.70
2019-02-28T23:01:09.272Z,11.13
2019-02-28T23:03:41.088Z,11.83
2019-02-28T23:06:12.470Z,11.40
2019-02-28T23:08:43.830Z,12.60
2019-02-28T23:11:15.375Z,11.63
2019-02-28T23:13:47.017Z,12.13
2019-02-28T23:16:18.375Z,12.23
2019-02-28T23:18:49.966Z,13.07
2019-02-28T23:21:21.329Z,14.57
2019-02-28T23:23:52.784Z,14.20
2019-02-28T23:26:29.243Z,14.93
2019-02-28T23:29:12.344Z,16.10
2019-02-28T23:32:40.441Z,17.30
2019-02-28T23:35:17.991Z,16.67
2019-02-28T23:37:50.870Z,17.80
2019-02-28T23:40:22.144Z,17.80
2019-02-28T23:42:53.473Z,18.57
2019-02-28T23:45:26.717Z,17.47
2019-02-28T23:47:58.445Z,17.93
2019-02-28T23:50:29.755Z,17.67
2019-02-28T23:53:01.136Z,17.73
2019-02-28T23:55:33.029Z,17.37
2019-02-28T23:58:05.604Z,18.30
